createdAt,value
2022-08-01T00:00:11.526Z,3.60
2022-08-01T00:02:42.129Z,3.75
2022-08-01T00:05:11.577Z,3.92
2022-08-01T00:07:40.309Z,3.40
2022-08-01T00:10:10.344Z,3.55
2022-08-01T00:12:38.990Z,3.42
2022-08-01T00:15:08.803Z,3.47
2022-08-01T00:17:37.191Z,3.97
2022-08-01T00:20:09.184Z,3.63
2022-08-01T00:22:37.446Z,3.10
2022-08-01T00:25:06.894Z,3.13
2022-08-01T00:27:37.726Z,3.33
2022-08-01T00:30:14.041Z,3.50
2022-08-01T00:32:42.752Z,3.38
2022-08-01T00:35:12.908Z,3.40
2022-08-01T00:37:41.041Z,3.47
2022-08-01T00:40:10.182Z,3.45
2022-08-01T00:42:43.279Z,3.70
2022-08-01T00:45:12.444Z,3.80
2022-08-01T00:47:40.507Z,3.42
2022-08-01T00:50:11.698Z,3.38
2022-08-01T00:52:41.943Z,3.47
2022-08-01T00:55:13.723Z,3.85
2022-08-01T00:58:03.125Z,3.55
2022-08-01T01:00:34.842Z,3.33
2022-08-01T01:03:23.580Z,3.45
2022-08-01T01:06:08.359Z,3.50
2022-08-01T01:08:41.739Z,4.32
2022-08-01T01:11:16.733Z,3.72
2022-08-01T01:13:51.626Z,3.65
2022-08-01T01:16:22.220Z,3.60
2022-08-01T01:18:54.192Z,3.17
2022-08-01T01:21:50.601Z,3.70
2022-08-01T01:24:28.733Z,3.92
2022-08-01T01:27:03.712Z,3.65
2022-08-01T01:30:00.287Z,3.38
2022-08-01T01:32:35.568Z,3.83
2022-08-01T01:35:08.524Z,4.57
2022-08-01T01:37:39.699Z,4.18
2022-08-01T01:40:11.581Z,3.60
2022-08-01T01:42:41.007Z,3.33
2022-08-01T01:45:11.208Z,4.70
2022-08-01T01:47:41.858Z,4.55
2022-08-01T01:50:12.919Z,3.88
2022-08-01T01:52:44.473Z,4.25
2022-08-01T01:55:14.267Z,3.85
2022-08-01T01:57:44.728Z,4.45
2022-08-01T02:00:16.412Z,4.50
2022-08-01T02:02:46.676Z,4.53
2022-08-01T02:05:16.057Z,4.10
2022-08-01T02:07:45.127Z,3.70
2022-08-01T02:10:18.790Z,4.18
2022-08-01T02:12:50.972Z,4.15
2022-08-01T02:15:21.606Z,4.53
2022-08-01T02:17:51.646Z,4.07
2022-08-01T02:20:20.108Z,4.20
2022-08-01T02:22:52.567Z,4.63
2022-08-01T02:25:26.872Z,3.63
2022-08-01T02:28:01.758Z,4.40
2022-08-01T02:30:36.122Z,3.97
2022-08-01T02:33:10.169Z,4.57
2022-08-01T02:36:30.667Z,4.20
2022-08-01T02:38:39.624Z,4.75
2022-08-01T02:41:10.779Z,4.50
2022-08-01T02:43:42.377Z,4.65
2022-08-01T02:46:18.240Z,4.30
2022-08-01T02:48:48.700Z,4.53
2022-08-01T02:51:19.277Z,4.38
2022-08-01T02:53:48.589Z,5.28
2022-08-01T02:56:18.406Z,4.93
2022-08-01T02:58:47.863Z,4.43
2022-08-01T03:01:19.980Z,4.13
2022-08-01T03:03:48.733Z,3.88
2022-08-01T03:06:18.737Z,4.30
2022-08-01T03:08:49.883Z,4.40
2022-08-01T03:11:19.225Z,4.55
2022-08-01T03:13:49.066Z,3.92
2022-08-01T03:16:20.088Z,4.13
2022-08-01T03:18:50.694Z,4.35
2022-08-01T03:21:21.137Z,3.65
2022-08-01T03:23:55.030Z,4.15
2022-08-01T03:26:23.872Z,4.30
2022-08-01T03:28:55.640Z,3.85
2022-08-01T03:31:26.607Z,3.90
2022-08-01T03:33:55.011Z,4.68
2022-08-01T03:36:29.299Z,4.43
2022-08-01T03:39:00.153Z,4.28
2022-08-01T03:41:32.443Z,4.20
2022-08-01T03:44:06.223Z,4.85
2022-08-01T03:46:42.614Z,4.18
2022-08-01T03:49:19.463Z,4.45
2022-08-01T03:51:50.582Z,4.82
2022-08-01T03:54:26.542Z,4.15
2022-08-01T03:56:55.112Z,4.05
2022-08-01T03:59:23.782Z,5.20
2022-08-01T04:01:53.540Z,4.57
2022-08-01T04:04:22.021Z,4.93
2022-08-01T04:06:52.146Z,3.90
2022-08-01T04:09:20.334Z,4.22
2022-08-01T04:11:48.810Z,4.30
2022-08-01T04:14:17.202Z,4.55
2022-08-01T04:16:45.462Z,4.50
2022-08-01T04:19:15.890Z,4.63
2022-08-01T04:21:44.383Z,5.00
2022-08-01T04:24:18.471Z,4.57
2022-08-01T04:26:48.594Z,5.03
2022-08-01T04:29:20.011Z,4.68
2022-08-01T04:31:50.422Z,5.40
2022-08-01T04:34:23.930Z,5.18
2022-08-01T04:36:54.449Z,4.93
2022-08-01T04:39:25.321Z,4.53
2022-08-01T04:41:57.505Z,5.25
2022-08-01T04:44:28.708Z,5.68
2022-08-01T04:46:59.359Z,5.70
2022-08-01T04:49:29.055Z,5.82
2022-08-01T04:51:58.647Z,5.97
2022-08-01T04:54:27.210Z,4.85
2022-08-01T04:56:56.680Z,4.32
2022-08-01T04:59:43.007Z,4.75
2022-08-01T05:04:42.737Z,4.25
2022-08-01T05:07:11.628Z,5.10
2022-08-01T05:09:42.494Z,4.78
2022-08-01T05:12:11.971Z,5.00
2022-08-01T05:14:40.549Z,4.25
2022-08-01T05:17:10.380Z,5.13
2022-08-01T05:19:41.588Z,4.30
2022-08-01T05:22:11.531Z,4.40
2022-08-01T05:24:41.805Z,4.60
2022-08-01T05:27:11.643Z,4.75
2022-08-01T05:29:44.689Z,5.32
2022-08-01T05:32:13.230Z,4.45
2022-08-01T05:34:42.694Z,4.10
2022-08-01T05:37:11.019Z,4.53
2022-08-01T05:39:39.049Z,4.88
2022-08-01T05:42:07.588Z,4.10
2022-08-01T05:44:35.905Z,3.83
2022-08-01T05:47:04.730Z,3.60
2022-08-01T05:49:32.794Z,3.70
2022-08-01T05:52:03.793Z,3.67
2022-08-01T05:54:32.222Z,3.85
2022-08-01T05:57:02.790Z,4.63
2022-08-01T05:59:31.565Z,4.13
2022-08-01T06:01:59.757Z,4.60
2022-08-01T06:04:28.053Z,3.83
2022-08-01T06:06:56.234Z,4.35
2022-08-01T06:09:26.723Z,3.90
2022-08-01T06:11:54.824Z,4.07
2022-08-01T06:14:22.875Z,3.67
2022-08-01T06:16:50.959Z,3.75
2022-08-01T06:19:19.131Z,3.70
2022-08-01T06:21:47.513Z,3.30
2022-08-01T06:24:15.709Z,4.07
2022-08-01T06:26:45.109Z,3.33
2022-08-01T06:29:14.055Z,3.00
2022-08-01T06:31:42.099Z,3.03
2022-08-01T06:34:10.093Z,2.80
2022-08-01T06:36:38.156Z,2.90
2022-08-01T06:39:06.314Z,2.78
2022-08-01T06:41:34.387Z,2.40
2022-08-01T06:44:05.399Z,2.40
2022-08-01T06:46:33.548Z,2.95
2022-08-01T06:49:03.261Z,3.10
2022-08-01T06:51:31.414Z,2.80
2022-08-01T06:53:59.544Z,2.38
2022-08-01T06:56:27.623Z,2.53
2022-08-01T06:59:00.140Z,2.97
2022-08-01T07:01:29.987Z,3.22
2022-08-01T07:04:02.398Z,3.10
2022-08-01T07:06:30.681Z,2.63
2022-08-01T07:09:02.501Z,2.60
2022-08-01T07:11:34.473Z,2.72
2022-08-01T07:14:02.562Z,2.90
2022-08-01T07:16:31.975Z,2.95
2022-08-01T07:19:00.102Z,2.63
2022-08-01T07:21:40.329Z,3.10
2022-08-01T07:24:12.915Z,2.58
2022-08-01T07:26:52.603Z,2.75
2022-08-01T07:29:23.994Z,2.70
2022-08-01T07:31:54.074Z,2.95
2022-08-01T07:34:22.396Z,2.45
2022-08-01T07:36:50.416Z,2.50
2022-08-01T07:39:18.715Z,3.15
2022-08-01T07:42:05.625Z,2.75
2022-08-01T07:44:35.279Z,3.00
2022-08-01T07:47:05.328Z,2.90
2022-08-01T07:49:37.765Z,2.70
2022-08-01T07:52:08.306Z,2.67
2022-08-01T07:54:37.159Z,2.67
2022-08-01T07:57:05.675Z,2.88
2022-08-01T07:59:33.879Z,2.53
2022-08-01T08:02:02.306Z,2.25
2022-08-01T08:04:31.790Z,2.50
2022-08-01T08:06:59.961Z,2.70
2022-08-01T08:09:28.041Z,3.25
2022-08-01T08:11:56.094Z,2.90
2022-08-01T08:14:32.411Z,2.35
2022-08-01T08:17:02.022Z,2.70
2022-08-01T08:19:38.669Z,2.70
2022-08-01T08:22:08.250Z,2.38
2022-08-01T08:24:36.733Z,2.38
2022-08-01T08:27:13.902Z,2.40
2022-08-01T08:29:42.786Z,2.78
2022-08-01T08:32:11.298Z,2.00
2022-08-01T08:34:40.956Z,2.53
2022-08-01T08:37:09.660Z,2.95
2022-08-01T08:39:42.107Z,2.28
2022-08-01T08:42:11.549Z,2.67
2022-08-01T08:44:43.581Z,2.30
2022-08-01T08:47:19.330Z,2.78
2022-08-01T08:49:51.692Z,2.15
2022-08-01T08:52:21.764Z,1.80
2022-08-01T08:54:51.347Z,2.20
2022-08-01T08:57:21.834Z,2.42
2022-08-01T08:59:52.763Z,2.03
2022-08-01T09:02:20.931Z,2.22
2022-08-01T09:04:51.502Z,2.00
2022-08-01T09:07:19.582Z,2.10
2022-08-01T09:09:49.286Z,2.25
2022-08-01T09:12:18.968Z,1.80
2022-08-01T09:14:48.479Z,2.08
2022-08-01T09:17:17.458Z,2.67
2022-08-01T09:19:48.763Z,1.90
2022-08-01T09:22:22.418Z,2.10
2022-08-01T09:25:02.068Z,1.85
2022-08-01T09:27:31.714Z,2.15
2022-08-01T09:30:11.355Z,2.35
2022-08-01T09:32:56.405Z,1.90
2022-08-01T09:35:29.817Z,1.67
2022-08-01T09:38:18.255Z,1.80
2022-08-01T09:40:51.769Z,1.70
2022-08-01T09:43:20.958Z,1.70
2022-08-01T09:45:50.796Z,1.90
2022-08-01T09:48:28.714Z,2.10
2022-08-01T09:51:04.641Z,1.40
2022-08-01T09:53:51.939Z,1.75
2022-08-01T09:56:22.240Z,1.70
2022-08-01T09:58:59.344Z,1.60
2022-08-01T10:01:37.045Z,1.60
2022-08-01T10:04:10.487Z,1.50
2022-08-01T10:06:40.969Z,1.40
2022-08-01T10:09:12.345Z,1.77
2022-08-01T10:11:44.679Z,2.30
2022-08-01T10:14:18.168Z,1.38
2022-08-01T10:16:53.142Z,1.50
2022-08-01T10:19:24.716Z,1.55
2022-08-01T10:21:58.079Z,1.20
2022-08-01T10:24:31.148Z,2.22
2022-08-01T10:27:12.175Z,1.45
2022-08-01T10:30:06.001Z,1.27
2022-08-01T10:32:39.697Z,1.58
2022-08-01T10:35:14.782Z,1.63
2022-08-01T10:37:52.514Z,1.48
2022-08-01T10:40:31.002Z,2.05
2022-08-01T10:43:00.311Z,1.40
2022-08-01T10:45:30.283Z,1.60
2022-08-01T10:48:05.065Z,1.63
2022-08-01T10:50:36.942Z,2.05
2022-08-01T10:53:24.004Z,2.05
2022-08-01T10:56:03.447Z,1.65
2022-08-01T10:58:39.829Z,1.70
2022-08-01T11:01:23.621Z,1.40
2022-08-01T11:04:11.462Z,1.90
2022-08-01T11:07:06.363Z,1.42
2022-08-01T11:09:51.408Z,1.30
2022-08-01T11:12:23.228Z,1.25
2022-08-01T11:15:30.152Z,1.90
2022-08-01T11:18:01.326Z,1.23
2022-08-01T11:20:32.408Z,1.10
2022-08-01T11:23:36.113Z,1.33
2022-08-01T11:26:29.577Z,1.08
2022-08-01T11:29:22.028Z,1.15
2022-08-01T11:31:53.007Z,1.27
2022-08-01T11:34:21.600Z,1.15
2022-08-01T11:36:59.430Z,1.50
2022-08-01T11:39:28.094Z,1.75
2022-08-01T11:42:17.962Z,1.30
2022-08-01T11:44:52.508Z,1.20
2022-08-01T11:47:44.376Z,1.88
2022-08-01T11:50:33.075Z,1.60
2022-08-01T11:53:02.258Z,1.15
2022-08-01T11:55:32.164Z,1.15
2022-08-01T11:58:05.279Z,1.17
2022-08-01T12:00:35.624Z,1.60
2022-08-01T12:03:06.618Z,1.50
2022-08-01T12:05:37.825Z,1.10
2022-08-01T12:08:11.812Z,1.38
2022-08-01T12:10:49.821Z,1.35
2022-08-01T12:13:21.134Z,1.25
2022-08-01T12:15:56.328Z,1.30
2022-08-01T12:18:25.143Z,1.30
2022-08-01T12:20:57.314Z,1.20
2022-08-01T12:23:26.042Z,1.20
2022-08-01T12:25:55.128Z,1.17
2022-08-01T12:28:23.945Z,1.38
2022-08-01T12:30:54.142Z,1.38
2022-08-01T12:33:23.315Z,1.20
2022-08-01T12:35:51.410Z,1.73
2022-08-01T12:38:23.073Z,1.20
2022-08-01T12:40:51.610Z,1.25
2022-08-01T12:43:28.017Z,1.30
2022-08-01T12:46:01.466Z,1.30
2022-08-01T12:48:32.482Z,1.10
2022-08-01T12:51:03.182Z,1.17
2022-08-01T12:53:40.358Z,0.95
2022-08-01T12:56:10.749Z,1.33
2022-08-01T12:58:38.956Z,1.67
2022-08-01T13:01:10.114Z,2.42
2022-08-01T13:03:38.691Z,1.60
2022-08-01T13:06:13.524Z,1.33
2022-08-01T13:08:41.730Z,1.10
2022-08-01T13:11:14.875Z,1.48
2022-08-01T13:13:44.413Z,1.10
2022-08-01T13:16:25.878Z,1.10
2022-08-01T13:19:03.189Z,1.30
2022-08-01T13:21:52.996Z,1.10
2022-08-01T13:24:25.696Z,1.02
2022-08-01T13:26:57.012Z,1.15
2022-08-01T13:29:33.589Z,1.05
2022-08-01T13:32:29.420Z,0.90
2022-08-01T13:35:06.374Z,0.88
2022-08-01T13:37:34.633Z,1.60
2022-08-01T13:40:02.902Z,1.10
2022-08-01T13:42:32.921Z,1.05
2022-08-01T13:45:01.086Z,0.95
2022-08-01T13:47:32.854Z,1.00
2022-08-01T13:50:03.775Z,1.30
2022-08-01T13:52:32.932Z,0.90
2022-08-01T13:55:02.256Z,0.73
2022-08-01T13:57:37.205Z,0.88
2022-08-01T14:02:41.592Z,0.75
2022-08-01T14:05:10.054Z,0.63
2022-08-01T14:07:38.423Z,0.70
2022-08-01T14:10:19.893Z,1.00
2022-08-01T14:12:49.194Z,0.90
2022-08-01T14:15:38.350Z,0.70
2022-08-01T14:18:07.722Z,0.80
2022-08-01T14:20:38.975Z,0.90
2022-08-01T14:23:08.510Z,0.65
2022-08-01T14:26:02.978Z,0.68
2022-08-01T14:28:26.465Z,0.50
2022-08-01T14:30:56.405Z,0.52
2022-08-01T14:33:25.962Z,0.60
2022-08-01T14:36:06.491Z,0.60
2022-08-01T14:38:42.494Z,0.60
2022-08-01T14:41:14.827Z,0.63
2022-08-01T14:43:43.244Z,0.70
2022-08-01T14:46:11.392Z,0.65
2022-08-01T14:48:41.397Z,0.52
2022-08-01T14:51:09.910Z,0.57
2022-08-01T14:53:38.570Z,0.60
2022-08-01T14:56:07.825Z,0.68
2022-08-01T14:58:36.206Z,0.60
2022-08-01T15:01:06.073Z,0.45
2022-08-01T15:03:34.155Z,0.50
2022-08-01T15:06:04.057Z,0.47
2022-08-01T15:08:33.336Z,0.50
2022-08-01T15:11:02.083Z,0.50
2022-08-01T15:13:31.366Z,0.50
2022-08-01T15:16:00.462Z,0.70
2022-08-01T15:18:28.840Z,0.80
2022-08-01T15:20:58.239Z,0.60
2022-08-01T15:23:27.740Z,0.50
2022-08-01T15:25:55.924Z,0.60
2022-08-01T15:28:24.049Z,0.57
2022-08-01T15:30:52.182Z,0.75
2022-08-01T15:33:22.383Z,0.60
2022-08-01T15:35:53.088Z,0.47
2022-08-01T15:38:22.559Z,0.63
2022-08-01T15:40:51.931Z,0.90
2022-08-01T15:43:20.093Z,0.68
2022-08-01T15:45:49.162Z,0.60
2022-08-01T15:48:17.666Z,0.40
2022-08-01T15:50:45.852Z,0.60
2022-08-01T15:53:14.344Z,0.52
2022-08-01T15:55:42.533Z,0.50
2022-08-01T15:58:21.825Z,0.70
2022-08-01T16:00:50.034Z,0.40
2022-08-01T16:03:18.071Z,0.55
2022-08-01T16:05:46.327Z,0.50
2022-08-01T16:08:14.729Z,0.70
2022-08-01T16:10:43.060Z,0.47
2022-08-01T16:13:11.261Z,0.50
2022-08-01T16:15:41.541Z,0.50
2022-08-01T16:18:12.907Z,0.57
2022-08-01T16:20:45.410Z,0.70
2022-08-01T16:23:14.371Z,0.50
2022-08-01T16:25:43.861Z,0.30
2022-08-01T16:28:12.228Z,0.45
2022-08-01T16:30:48.770Z,0.70
2022-08-01T16:33:47.684Z,0.50
2022-08-01T16:36:18.871Z,0.63
2022-08-01T16:38:47.798Z,0.60
2022-08-01T16:41:19.914Z,0.40
2022-08-01T16:43:53.732Z,0.70
2022-08-01T16:46:25.103Z,0.60
2022-08-01T16:48:53.922Z,0.50
2022-08-01T16:51:22.279Z,0.60
2022-08-01T16:53:50.492Z,0.32
2022-08-01T16:56:19.005Z,0.70
2022-08-01T16:58:47.258Z,0.70
2022-08-01T17:01:58.928Z,0.50
2022-08-01T17:04:05.409Z,0.60
2022-08-01T17:06:33.582Z,0.63
2022-08-01T17:09:01.546Z,0.60
2022-08-01T17:11:29.953Z,0.70
2022-08-01T17:13:58.079Z,0.70
2022-08-01T17:16:26.139Z,0.70
2022-08-01T17:18:54.450Z,0.60
2022-08-01T17:21:24.190Z,1.10
2022-08-01T17:23:52.402Z,0.82
2022-08-01T17:26:20.664Z,1.05
2022-08-01T17:28:48.856Z,0.75
2022-08-01T17:31:17.162Z,0.80
2022-08-01T17:33:48.679Z,0.80
2022-08-01T17:36:21.405Z,0.52
2022-08-01T17:38:50.764Z,0.88
2022-08-01T17:41:18.956Z,0.65
2022-08-01T17:43:47.175Z,0.57
2022-08-01T17:46:15.239Z,0.60
2022-08-01T17:48:44.484Z,0.80
2022-08-01T17:51:12.675Z,1.67
2022-08-01T17:53:57.046Z,1.30
2022-08-01T17:56:28.315Z,1.73
2022-08-01T17:58:57.226Z,1.20
2022-08-01T18:01:26.702Z,1.10
2022-08-01T18:03:56.026Z,1.60
2022-08-01T18:06:26.408Z,1.33
2022-08-01T18:08:56.221Z,1.40
2022-08-01T18:11:27.459Z,1.20
2022-08-01T18:13:59.676Z,1.17
2022-08-01T18:16:28.469Z,1.23
2022-08-01T18:18:57.788Z,1.20
2022-08-01T18:21:26.128Z,1.17
2022-08-01T18:23:54.313Z,0.88
2022-08-01T18:26:22.674Z,1.27
2022-08-01T18:28:50.913Z,0.90
2022-08-01T18:31:20.767Z,1.20
2022-08-01T18:33:49.303Z,0.90
2022-08-01T18:36:33.228Z,0.85
2022-08-01T18:39:04.582Z,1.17
2022-08-01T18:41:33.762Z,0.70
2022-08-01T18:44:04.264Z,0.80
2022-08-01T18:46:38.306Z,0.85
2022-08-01T18:49:07.818Z,0.70
2022-08-01T18:51:42.944Z,0.90
2022-08-01T18:54:11.382Z,0.80
2022-08-01T18:56:39.454Z,1.10
2022-08-01T18:59:07.570Z,0.88
2022-08-01T19:01:37.235Z,0.90
2022-08-01T19:04:05.353Z,0.75
2022-08-01T19:06:33.584Z,1.00
2022-08-01T19:09:03.472Z,0.98
2022-08-01T19:11:31.882Z,1.10
2022-08-01T19:14:02.344Z,1.13
2022-08-01T19:16:30.588Z,0.70
2022-08-01T19:19:00.422Z,1.00
2022-08-01T19:21:28.742Z,1.10
2022-08-01T19:24:14.849Z,1.15
2022-08-01T19:26:46.919Z,1.52
2022-08-01T19:29:18.740Z,1.27
2022-08-01T19:31:49.142Z,0.80
2022-08-01T19:34:24.783Z,0.90
2022-08-01T19:36:59.799Z,0.90
2022-08-01T19:39:28.317Z,0.90
2022-08-01T19:41:59.397Z,0.70
2022-08-01T19:44:29.712Z,0.88
2022-08-01T19:46:58.106Z,0.90
2022-08-01T19:49:27.817Z,0.93
2022-08-01T19:52:01.403Z,0.88
2022-08-01T19:54:36.339Z,0.88
2022-08-01T19:57:06.370Z,0.85
2022-08-01T19:59:36.084Z,0.80
2022-08-01T20:02:04.934Z,1.00
2022-08-01T20:04:35.516Z,0.65
2022-08-01T20:07:04.621Z,1.15
2022-08-01T20:09:33.492Z,1.00
2022-08-01T20:12:01.643Z,1.00
2022-08-01T20:14:30.358Z,0.77
2022-08-01T20:16:58.599Z,0.73
2022-08-01T20:19:27.299Z,1.00
2022-08-01T20:22:02.361Z,0.77
2022-08-01T20:24:38.149Z,1.08
2022-08-01T20:27:09.229Z,0.70
2022-08-01T20:29:38.285Z,0.60
2022-08-01T20:32:08.865Z,0.90
2022-08-01T20:34:38.662Z,0.80
2022-08-01T20:37:13.051Z,0.90
2022-08-01T20:39:44.220Z,0.70
2022-08-01T20:42:14.468Z,1.20
2022-08-01T20:44:43.285Z,1.10
2022-08-01T20:47:11.771Z,0.82
2022-08-01T20:49:43.390Z,1.15
2022-08-01T20:52:13.100Z,0.93
2022-08-01T20:54:42.359Z,0.90
2022-08-01T20:57:16.769Z,0.98
2022-08-01T20:59:55.304Z,1.10
2022-08-01T21:02:32.316Z,1.08
2022-08-01T21:05:07.465Z,0.93
2022-08-01T21:07:41.050Z,0.98
2022-08-01T21:10:11.773Z,0.95
2022-08-01T21:12:45.195Z,1.00
2022-08-01T21:15:22.014Z,1.60
2022-08-01T21:17:58.997Z,1.67
2022-08-01T21:20:29.827Z,1.30
2022-08-01T21:23:10.747Z,1.10
2022-08-01T21:25:39.161Z,1.30
2022-08-01T21:28:07.289Z,1.20
2022-08-01T21:30:37.177Z,1.45
2022-08-01T21:33:06.782Z,1.40
2022-08-01T21:35:36.237Z,1.65
2022-08-01T21:38:06.750Z,1.23
2022-08-01T21:40:36.190Z,1.38
2022-08-01T21:43:05.411Z,1.20
2022-08-01T21:45:33.453Z,1.30
2022-08-01T21:48:02.112Z,1.30
2022-08-01T21:50:39.730Z,1.42
2022-08-01T21:53:17.080Z,1.55
2022-08-01T21:56:14.503Z,1.25
2022-08-01T21:58:51.614Z,1.23
2022-08-01T22:01:28.090Z,1.40
2022-08-01T22:03:59.949Z,1.50
2022-08-01T22:06:29.475Z,1.50
2022-08-01T22:09:05.740Z,1.35
2022-08-01T22:11:38.022Z,1.23
2022-08-01T22:14:28.144Z,1.30
2022-08-01T22:16:56.480Z,1.38
2022-08-01T22:19:41.986Z,1.38
2022-08-01T22:22:42.429Z,1.40
2022-08-01T22:25:03.097Z,1.27
2022-08-01T22:28:06.363Z,1.35
2022-08-01T22:30:21.009Z,1.60
2022-08-01T22:33:07.587Z,1.50
2022-08-01T22:35:39.993Z,1.25
2022-08-01T22:38:09.952Z,1.30
2022-08-01T22:40:49.238Z,1.67
2022-08-01T22:43:25.893Z,1.40
2022-08-01T22:46:06.289Z,1.70
2022-08-01T22:48:46.120Z,1.73
2022-08-01T22:51:33.606Z,1.45
2022-08-01T22:54:06.679Z,1.42
2022-08-01T22:56:39.191Z,1.63
2022-08-01T22:59:12.410Z,1.60
2022-08-01T23:01:47.839Z,1.55
2022-08-01T23:04:33.053Z,1.27
2022-08-01T23:07:05.950Z,1.60
2022-08-01T23:09:52.563Z,1.70
2022-08-01T23:12:26.093Z,1.38
2022-08-01T23:14:55.611Z,1.77
2022-08-01T23:17:27.020Z,1.38
2022-08-01T23:19:58.830Z,1.58
2022-08-01T23:22:31.032Z,1.45
2022-08-01T23:25:05.028Z,1.73
2022-08-01T23:28:03.611Z,1.45
2022-08-01T23:30:29.940Z,1.38
2022-08-01T23:32:59.073Z,1.55
2022-08-01T23:35:28.019Z,1.10
2022-08-01T23:38:01.949Z,1.40
2022-08-01T23:40:32.591Z,1.50
2022-08-01T23:43:03.632Z,1.50
2022-08-01T23:46:00.774Z,2.10
2022-08-01T23:48:20.598Z,1.30
2022-08-01T23:50:48.655Z,1.20
2022-08-01T23:53:16.936Z,1.30
2022-08-01T23:55:47.230Z,1.58
2022-08-01T23:58:17.534Z,2.15
